createdAt,value
2019-05-01T00:01:04.481Z,14.30
2019-05-01T00:04:08.719Z,14.20
2019-05-01T00:10:28.819Z,13.53
2019-05-01T00:13:18.489Z,12.97
2019-05-01T00:16:01.344Z,13.27
2019-05-01T00:21:46.503Z,13.10
2019-05-01T00:24:36.271Z,11.77
2019-05-01T00:27:26.154Z,11.60
2019-05-01T00:33:13.671Z,11.97
2019-05-01T00:36:03.401Z,12.20
2019-05-01T00:38:45.382Z,12.27
2019-05-01T00:41:35.104Z,13.37
2019-05-01T00:44:19.454Z,13.53
2019-05-01T00:47:09.150Z,13.90
2019-05-01T00:49:53.320Z,13.27
2019-05-01T00:52:43.114Z,12.23
2019-05-01T00:55:44.104Z,12.97
2019-05-01T01:02:05.942Z,13.37
2019-05-01T01:04:55.974Z,13.37
2019-05-01T01:07:38.920Z,14.57
2019-05-01T01:10:28.736Z,17.07
2019-05-01T01:13:11.001Z,15.60
2019-05-01T01:16:00.711Z,13.93
2019-05-01T01:18:43.128Z,13.50
2019-05-01T01:21:32.818Z,13.97
2019-05-01T01:24:15.412Z,18.80
2019-05-01T01:27:05.195Z,18.57
2019-05-01T01:29:51.707Z,26.40
2019-05-01T01:32:41.407Z,28.87
2019-05-01T01:35:24.270Z,44.27
2019-05-01T01:38:33.095Z,43.00
2019-05-01T01:41:15.391Z,45.60
2019-05-01T01:47:21.473Z,31.90
2019-05-01T01:50:30.382Z,39.03
2019-05-01T01:53:40.689Z,37.93
2019-05-01T01:56:30.492Z,32.83
2019-05-01T02:02:53.331Z,40.37
2019-05-01T02:05:44.304Z,43.07
2019-05-01T02:08:34.017Z,33.43
2019-05-01T02:11:16.108Z,35.07
2019-05-01T02:13:59.047Z,36.27
2019-05-01T02:16:48.755Z,33.53
2019-05-01T02:19:57.563Z,34.80
2019-05-01T02:22:47.289Z,49.63
2019-05-01T02:25:31.678Z,47.40
2019-05-01T02:31:45.822Z,54.97
2019-05-01T02:34:56.103Z,65.00
2019-05-01T02:37:54.793Z,57.67
2019-05-01T02:44:08.459Z,54.77
2019-05-01T02:47:18.699Z,62.30
2019-05-01T02:50:05.760Z,54.67
2019-05-01T02:52:55.581Z,54.80
2019-05-01T02:58:59.448Z,57.13
2019-05-01T03:05:31.618Z,72.53
2019-05-01T03:08:13.765Z,79.73
2019-05-01T03:11:22.646Z,87.57
2019-05-01T03:14:04.989Z,78.30
2019-05-01T03:17:34.163Z,88.10
2019-05-01T03:20:42.872Z,100.97
2019-05-01T03:23:29.063Z,90.60
2019-05-01T03:26:51.378Z,99.23
2019-05-01T03:29:33.921Z,95.83
2019-05-01T03:32:23.705Z,104.57
2019-05-01T03:35:13.959Z,88.70
2019-05-01T03:38:03.882Z,111.57
2019-05-01T03:40:53.848Z,101.20
2019-05-01T03:43:43.788Z,94.33
2019-05-01T03:46:46.501Z,94.93
2019-05-01T03:49:28.979Z,81.77
2019-05-01T03:52:18.731Z,96.17
2019-05-01T03:55:01.151Z,101.57
2019-05-01T03:57:50.890Z,101.37
2019-05-01T04:03:52.109Z,99.97
2019-05-01T04:06:34.993Z,113.30
2019-05-01T04:09:24.792Z,89.33
2019-05-01T04:15:31.214Z,63.63
2019-05-01T04:18:20.962Z,56.53
2019-05-01T04:21:03.654Z,55.93
2019-05-01T04:23:53.659Z,57.47
2019-05-01T04:26:35.511Z,62.60
2019-05-01T04:30:04.575Z,56.60
2019-05-01T04:32:52.493Z,65.20
2019-05-01T04:35:57.692Z,57.37
2019-05-01T04:38:40.523Z,71.20
2019-05-01T04:41:30.342Z,55.30
2019-05-01T04:44:12.733Z,54.63
2019-05-01T04:50:19.789Z,55.87
2019-05-01T04:53:01.900Z,63.27
2019-05-01T04:55:51.659Z,52.43
2019-05-01T04:58:41.459Z,51.10
2019-05-01T05:01:50.193Z,41.50
2019-05-01T05:04:39.979Z,53.70
2019-05-01T05:07:29.806Z,61.50
2019-05-01T05:10:12.454Z,61.67
2019-05-01T05:16:35.303Z,58.77
2019-05-01T05:19:24.987Z,62.23
2019-05-01T05:22:08.047Z,57.20
2019-05-01T05:24:57.969Z,90.80
2019-05-01T05:27:40.561Z,65.33
2019-05-01T05:30:30.455Z,71.50
2019-05-01T05:33:20.573Z,87.83
2019-05-01T05:42:32.489Z,64.40
2019-05-01T05:45:14.673Z,69.13
2019-05-01T05:48:04.734Z,59.40
2019-05-01T05:51:33.891Z,59.67
2019-05-01T05:55:03.082Z,53.57
2019-05-01T05:58:04.007Z,67.23
2019-05-01T06:04:28.510Z,55.20
2019-05-01T06:07:35.850Z,53.33
2019-05-01T06:11:05.063Z,51.80
2019-05-01T06:20:37.357Z,58.80
2019-05-01T06:23:46.293Z,54.37
2019-05-01T06:26:37.539Z,49.57
2019-05-01T06:29:23.050Z,50.67
2019-05-01T06:32:05.113Z,53.93
2019-05-01T06:34:58.496Z,55.47
2019-05-01T06:38:00.588Z,51.03
2019-05-01T06:44:04.054Z,49.63
2019-05-01T06:47:07.769Z,44.30
2019-05-01T06:52:55.504Z,43.50
2019-05-01T06:56:05.779Z,43.57
2019-05-01T06:58:51.091Z,43.37
2019-05-01T07:01:39.924Z,42.13
2019-05-01T07:04:22.246Z,46.23
2019-05-01T07:10:31.494Z,43.83
2019-05-01T07:13:35.574Z,44.53
2019-05-01T07:16:17.454Z,40.93
2019-05-01T07:22:10.487Z,39.70
2019-05-01T07:25:04.196Z,38.20
2019-05-01T07:27:44.604Z,36.03
2019-05-01T07:30:34.173Z,36.70
2019-05-01T07:33:17.817Z,33.77
2019-05-01T07:36:15.008Z,34.87
2019-05-01T07:38:52.722Z,33.03
2019-05-01T07:41:42.671Z,32.07
2019-05-01T07:47:38.288Z,31.17
2019-05-01T07:50:23.883Z,29.47
2019-05-01T07:53:05.480Z,30.30
2019-05-01T07:55:55.322Z,30.10
2019-05-01T07:58:47.411Z,29.27
2019-05-01T08:01:50.057Z,25.70
2019-05-01T08:04:41.404Z,25.97
2019-05-01T08:07:32.406Z,23.50
2019-05-01T08:10:14.806Z,24.40
2019-05-01T08:13:04.600Z,24.20
2019-05-01T08:16:13.474Z,20.17
2019-05-01T08:19:22.103Z,22.20
2019-05-01T08:22:37.395Z,23.10
2019-05-01T08:25:28.640Z,20.70
2019-05-01T08:31:37.294Z,21.10
2019-05-01T08:34:25.353Z,22.17
2019-05-01T08:37:06.653Z,20.70
2019-05-01T08:39:56.526Z,20.20
2019-05-01T08:42:46.286Z,20.27
2019-05-01T08:45:54.898Z,20.30
2019-05-01T08:49:06.917Z,19.20
2019-05-01T08:51:47.922Z,19.30
2019-05-01T08:54:37.651Z,18.70
2019-05-01T08:57:29.263Z,16.93
2019-05-01T09:00:11.974Z,17.60
2019-05-01T09:03:20.827Z,17.07
2019-05-01T09:06:10.609Z,18.17
2019-05-01T09:09:02.951Z,18.03
2019-05-01T09:11:44.711Z,17.13
2019-05-01T09:14:35.147Z,16.70
2019-05-01T09:17:18.917Z,16.00
2019-05-01T09:20:09.031Z,15.87
2019-05-01T09:22:59.231Z,16.40
2019-05-01T09:26:14.613Z,16.97
2019-05-01T09:31:53.258Z,14.23
2019-05-01T09:34:42.983Z,15.20
2019-05-01T09:37:25.931Z,14.50
2019-05-01T09:40:16.134Z,14.23
2019-05-01T09:42:59.456Z,14.53
2019-05-01T09:45:50.407Z,14.67
2019-05-01T09:48:33.015Z,14.70
2019-05-01T09:54:42.890Z,13.20
2019-05-01T09:57:31.051Z,13.97
2019-05-01T10:03:22.695Z,14.20
2019-05-01T10:06:05.553Z,13.60
2019-05-01T10:08:55.352Z,14.97
2019-05-01T10:11:45.050Z,14.03
2019-05-01T10:14:36.136Z,13.40
2019-05-01T10:17:17.139Z,11.10
2019-05-01T10:20:06.872Z,11.17
2019-05-01T10:22:49.128Z,11.87
2019-05-01T10:32:21.245Z,9.43
2019-05-01T10:35:21.078Z,9.10
2019-05-01T10:38:04.701Z,9.97
2019-05-01T10:40:55.682Z,9.87
2019-05-01T10:43:45.384Z,9.77
2019-05-01T10:46:35.092Z,9.47
2019-05-01T10:49:24.818Z,8.47
2019-05-01T10:52:14.000Z,9.50
2019-05-01T10:54:58.700Z,8.87
2019-05-01T10:57:42.172Z,8.33
2019-05-01T11:00:32.032Z,7.47
2019-05-01T11:03:14.618Z,8.10
2019-05-01T11:06:04.433Z,7.27
2019-05-01T11:08:49.082Z,7.53
2019-05-01T11:11:38.766Z,7.47
2019-05-01T11:14:21.478Z,7.50
2019-05-01T11:17:11.291Z,8.07
2019-05-01T11:19:53.943Z,6.70
2019-05-01T11:25:38.486Z,7.40
2019-05-01T11:28:28.598Z,7.20
2019-05-01T11:35:01.446Z,7.60
2019-05-01T11:38:09.945Z,6.37
2019-05-01T11:40:57.649Z,7.23
2019-05-01T11:43:47.374Z,6.70
2019-05-01T11:46:29.710Z,7.70
2019-05-01T11:49:19.837Z,6.40
2019-05-01T11:52:01.962Z,6.40
2019-05-01T11:54:51.683Z,7.17
2019-05-01T11:57:22.356Z,6.43
2019-05-01T12:03:09.021Z,6.20
2019-05-01T12:05:58.784Z,6.27
2019-05-01T12:08:48.613Z,6.10
2019-05-01T12:14:35.193Z,5.27
2019-05-01T12:17:43.739Z,4.70
2019-05-01T12:20:26.310Z,4.60
2019-05-01T12:23:16.169Z,5.20
2019-05-01T12:25:58.517Z,6.33
2019-05-01T12:28:48.255Z,4.90
2019-05-01T12:31:31.613Z,4.70
2019-05-01T12:34:21.327Z,4.60
2019-05-01T12:37:22.228Z,5.73
2019-05-01T12:43:28.001Z,5.10
2019-05-01T12:49:33.123Z,4.67
2019-05-01T12:52:41.801Z,5.07
2019-05-01T12:55:46.877Z,5.17
2019-05-01T12:58:29.197Z,4.93
2019-05-01T13:01:37.700Z,5.57
2019-05-01T13:04:27.464Z,5.20
2019-05-01T13:07:09.957Z,4.60
2019-05-01T13:10:39.079Z,5.83
2019-05-01T13:13:21.940Z,5.10
2019-05-01T13:16:11.780Z,5.07
2019-05-01T13:19:01.782Z,5.40
2019-05-01T13:21:51.575Z,5.13
2019-05-01T13:33:57.023Z,4.87
2019-05-01T13:36:39.403Z,5.00
2019-05-01T13:39:29.476Z,5.93
2019-05-01T13:42:19.344Z,5.17
2019-05-01T13:45:29.675Z,4.67
2019-05-01T13:48:13.692Z,4.37
2019-05-01T13:50:58.308Z,4.50
2019-05-01T13:53:40.844Z,4.60
2019-05-01T13:56:30.610Z,4.67
2019-05-01T13:59:20.548Z,5.13
2019-05-01T14:02:10.446Z,5.17
2019-05-01T14:05:00.184Z,5.50
2019-05-01T14:07:50.046Z,4.50
2019-05-01T14:10:39.799Z,5.00
2019-05-01T14:13:48.642Z,5.33
2019-05-01T14:16:38.387Z,5.10
2019-05-01T14:22:49.464Z,5.13
2019-05-01T14:25:57.958Z,5.70
2019-05-01T14:28:39.910Z,5.50
2019-05-01T14:31:29.662Z,5.50
2019-05-01T14:34:12.048Z,5.23
2019-05-01T14:37:01.780Z,5.70
2019-05-01T14:39:44.286Z,4.90
2019-05-01T14:42:34.569Z,5.30
2019-05-01T14:45:17.472Z,5.20
2019-05-01T14:48:07.173Z,4.70
2019-05-01T14:50:50.547Z,4.50
2019-05-01T14:53:41.077Z,4.97
2019-05-01T14:56:25.582Z,5.23
2019-05-01T14:59:08.393Z,4.60
2019-05-01T15:01:52.593Z,4.80
2019-05-01T15:04:42.402Z,4.60
2019-05-01T15:07:51.280Z,5.20
2019-05-01T15:10:41.031Z,5.27
2019-05-01T15:16:40.911Z,5.03
2019-05-01T15:19:32.892Z,4.87
2019-05-01T15:28:24.181Z,4.67
2019-05-01T15:34:15.863Z,5.10
2019-05-01T15:43:30.532Z,4.77
2019-05-01T15:46:20.452Z,5.00
2019-05-01T15:49:02.679Z,4.70
2019-05-01T15:54:55.645Z,4.83
2019-05-01T15:57:45.430Z,5.10
2019-05-01T16:00:28.943Z,5.72
2019-05-01T16:06:21.372Z,4.97
2019-05-01T16:08:52.693Z,4.97
2019-05-01T16:12:01.234Z,4.60
2019-05-01T16:14:45.759Z,5.20
2019-05-01T16:17:35.543Z,5.07
2019-05-01T16:20:25.267Z,4.70
2019-05-01T16:23:34.137Z,16.60
2019-05-01T16:26:23.893Z,4.43
2019-05-01T16:29:08.143Z,4.42
2019-05-01T16:31:38.883Z,4.70
2019-05-01T16:37:24.477Z,4.13
2019-05-01T16:43:14.140Z,4.90
2019-05-01T16:48:58.603Z,4.40
2019-05-01T16:51:48.569Z,4.23
2019-05-01T16:54:38.327Z,4.37
2019-05-01T17:00:12.500Z,4.30
2019-05-01T17:03:21.782Z,4.33
2019-05-01T17:06:17.002Z,3.97
2019-05-01T17:12:23.336Z,4.40
2019-05-01T17:15:13.871Z,4.17
2019-05-01T17:18:03.758Z,4.10
2019-05-01T17:20:34.508Z,4.10
2019-05-01T17:23:24.256Z,4.30
2019-05-01T17:26:06.646Z,3.97
2019-05-01T17:31:50.139Z,3.73
2019-05-01T17:37:35.695Z,3.70
2019-05-01T17:43:26.634Z,4.10
2019-05-01T17:46:16.510Z,3.77
2019-05-01T17:49:09.337Z,3.93
2019-05-01T17:51:50.631Z,3.83
2019-05-01T17:54:40.474Z,3.83
2019-05-01T17:57:30.460Z,3.90
2019-05-01T18:06:26.764Z,3.33
2019-05-01T18:12:11.880Z,3.50
2019-05-01T18:15:01.907Z,3.40
2019-05-01T18:17:51.747Z,3.07
2019-05-01T18:20:41.620Z,3.30
2019-05-01T18:23:52.856Z,3.17
2019-05-01T18:26:55.860Z,2.67
2019-05-01T18:33:21.978Z,3.47
2019-05-01T18:36:04.098Z,3.50
2019-05-01T18:42:02.524Z,3.17
2019-05-01T18:44:52.487Z,3.00
2019-05-01T18:47:42.313Z,3.60
2019-05-01T18:50:25.432Z,3.17
2019-05-01T18:53:15.607Z,3.60
2019-05-01T18:56:01.375Z,3.13
2019-05-01T18:58:49.829Z,3.73
2019-05-01T19:01:43.947Z,4.83
2019-05-01T19:04:24.753Z,4.63
2019-05-01T19:07:08.714Z,4.30
2019-05-01T19:09:39.617Z,4.00
2019-05-01T19:12:31.311Z,3.90
2019-05-01T19:15:21.132Z,3.67
2019-05-01T19:18:03.383Z,3.90
2019-05-01T19:20:59.616Z,3.67
2019-05-01T19:23:37.578Z,3.43
2019-05-01T19:26:27.519Z,3.63
2019-05-01T19:29:10.415Z,3.67
2019-05-01T19:32:00.253Z,3.87
2019-05-01T19:34:42.263Z,4.40
2019-05-01T19:40:33.123Z,3.67
2019-05-01T19:43:22.881Z,4.17
2019-05-01T19:46:05.867Z,3.60
2019-05-01T19:48:55.553Z,4.10
2019-05-01T19:51:37.891Z,3.83
2019-05-01T19:54:29.795Z,4.33
2019-05-01T19:57:12.003Z,4.80
2019-05-01T20:00:01.757Z,5.20
2019-05-01T20:02:32.475Z,4.97
2019-05-01T20:05:27.240Z,5.07
2019-05-01T20:08:06.239Z,5.23
2019-05-01T20:10:56.153Z,4.70
2019-05-01T20:13:40.582Z,5.17
2019-05-01T20:16:30.398Z,5.80
2019-05-01T20:19:12.834Z,6.00
2019-05-01T20:22:02.888Z,5.37
2019-05-01T20:24:45.878Z,6.13
2019-05-01T20:30:38.071Z,6.43
2019-05-01T20:33:27.898Z,5.77
2019-05-01T20:36:09.875Z,5.97
2019-05-01T20:38:59.839Z,5.77
2019-05-01T20:41:49.810Z,4.97
2019-05-01T20:44:39.704Z,4.80
2019-05-01T20:47:35.207Z,5.30
2019-05-01T20:50:14.267Z,5.23
2019-05-01T20:53:03.998Z,5.47
2019-05-01T20:59:02.831Z,5.73
2019-05-01T21:01:49.487Z,5.50
2019-05-01T21:04:50.572Z,5.20
2019-05-01T21:07:59.340Z,5.17
2019-05-01T21:14:19.670Z,4.83
2019-05-01T21:16:59.102Z,4.80
2019-05-01T21:19:43.990Z,4.80
2019-05-01T21:22:33.932Z,4.70
2019-05-01T21:25:17.174Z,4.23
2019-05-01T21:28:06.920Z,4.67
2019-05-01T21:30:49.473Z,4.27
2019-05-01T21:33:40.860Z,4.90
2019-05-01T21:36:23.661Z,4.80
2019-05-01T21:39:14.968Z,4.80
2019-05-01T21:41:57.446Z,4.63
2019-05-01T21:44:47.210Z,5.23
2019-05-01T21:47:37.054Z,5.23
2019-05-01T21:50:26.820Z,5.10
2019-05-01T21:53:09.436Z,5.20
2019-05-01T21:59:06.799Z,4.90
2019-05-01T22:01:34.939Z,4.53
2019-05-01T22:04:28.005Z,5.00
2019-05-01T22:06:56.958Z,4.73
2019-05-01T22:09:29.355Z,4.30
2019-05-01T22:12:19.290Z,4.27
2019-05-01T22:18:55.771Z,4.67
2019-05-01T22:22:04.357Z,4.90
2019-05-01T22:25:05.883Z,4.87
2019-05-01T22:28:18.730Z,4.77
2019-05-01T22:31:21.824Z,6.50
2019-05-01T22:34:28.063Z,4.60
2019-05-01T22:43:23.955Z,4.70
2019-05-01T22:49:23.864Z,4.60
2019-05-01T22:52:13.741Z,5.00
2019-05-01T22:54:56.046Z,5.00
2019-05-01T23:00:51.717Z,4.37
2019-05-01T23:04:00.217Z,5.17
2019-05-01T23:06:43.197Z,4.50
2019-05-01T23:09:33.455Z,4.70
2019-05-01T23:12:15.397Z,4.93
2019-05-01T23:18:02.201Z,5.10
2019-05-01T23:20:52.199Z,4.90
2019-05-01T23:26:19.121Z,4.90
2019-05-01T23:29:08.890Z,5.47
2019-05-01T23:31:51.149Z,4.87
2019-05-01T23:37:42.516Z,5.57
2019-05-01T23:43:33.417Z,5.90
2019-05-01T23:46:23.447Z,5.10
2019-05-01T23:49:05.587Z,5.27
2019-05-01T23:51:58.658Z,5.83
2019-05-01T23:54:39.881Z,5.30
2019-05-01T23:57:29.610Z,5.47
